createdAt,value
2023-02-22T00:00:43.075Z,96.10
2023-02-22T00:03:15.615Z,96.10
2023-02-22T00:05:47.578Z,96.00
2023-02-22T00:08:16.626Z,96.10
2023-02-22T00:10:44.784Z,96.10
2023-02-22T00:13:14.928Z,96.10
2023-02-22T00:15:42.012Z,96.00
2023-02-22T00:18:16.960Z,95.90
2023-02-22T00:20:44.165Z,96.00
2023-02-22T00:23:19.021Z,95.90
2023-02-22T00:25:48.576Z,95.90
2023-02-22T00:28:17.070Z,95.90
2023-02-22T00:30:44.428Z,95.90
2023-02-22T00:33:17.406Z,95.90
2023-02-22T00:35:48.663Z,95.90
2023-02-22T00:38:19.160Z,95.90
2023-02-22T00:40:46.554Z,96.20
2023-02-22T00:43:14.270Z,95.90
2023-02-22T00:45:42.430Z,95.90
2023-02-22T00:48:10.732Z,95.90
2023-02-22T00:50:38.402Z,95.80
2023-02-22T00:53:09.347Z,95.80
2023-02-22T00:55:38.483Z,95.80
2023-02-22T00:58:06.455Z,95.80
2023-02-22T01:00:40.098Z,95.70
2023-02-22T01:03:09.547Z,95.70
2023-02-22T01:05:38.356Z,95.60
2023-02-22T01:08:08.002Z,95.60
2023-02-22T01:10:36.748Z,95.60
2023-02-22T01:13:09.425Z,95.60
2023-02-22T01:15:39.298Z,95.60
2023-02-22T01:18:07.222Z,95.60
2023-02-22T01:20:34.688Z,95.60
2023-02-22T01:23:03.966Z,95.60
2023-02-22T01:25:32.246Z,95.70
2023-02-22T01:28:01.840Z,95.70
2023-02-22T01:30:33.016Z,95.70
2023-02-22T01:33:02.922Z,95.70
2023-02-22T01:35:33.750Z,95.70
2023-02-22T01:38:02.903Z,95.70
2023-02-22T01:40:35.935Z,95.70
2023-02-22T01:43:07.054Z,95.70
2023-02-22T01:45:45.248Z,95.70
2023-02-22T01:49:10.366Z,95.70
2023-02-22T01:51:44.237Z,95.70
2023-02-22T01:54:13.988Z,95.70
2023-02-22T01:57:07.222Z,95.70
2023-02-22T01:59:37.728Z,95.70
2023-02-22T02:02:06.774Z,95.70
2023-02-22T02:04:35.237Z,95.70
2023-02-22T02:07:06.593Z,95.70
2023-02-22T02:09:40.461Z,95.70
2023-02-22T02:12:11.233Z,95.60
2023-02-22T02:14:41.652Z,95.70
2023-02-22T02:17:12.814Z,95.70
2023-02-22T02:19:51.440Z,95.70
2023-02-22T02:22:34.964Z,95.70
2023-02-22T02:25:38.543Z,95.60
2023-02-22T02:28:40.941Z,95.60
2023-02-22T02:31:21.956Z,95.60
2023-02-22T02:34:27.493Z,95.50
2023-02-22T02:37:16.552Z,95.40
2023-02-22T02:39:56.836Z,95.50
2023-02-22T02:42:31.870Z,95.60
2023-02-22T02:45:10.575Z,95.60
2023-02-22T02:47:46.519Z,95.60
2023-02-22T02:50:34.188Z,95.60
2023-02-22T02:53:04.838Z,95.70
2023-02-22T02:55:32.928Z,95.70
2023-02-22T02:58:00.936Z,95.70
2023-02-22T03:00:39.417Z,95.70
2023-02-22T03:03:28.392Z,95.60
2023-02-22T03:06:35.235Z,95.70
2023-02-22T03:09:13.941Z,95.70
2023-02-22T03:12:08.159Z,95.70
2023-02-22T03:14:48.490Z,95.80
2023-02-22T03:17:38.166Z,95.70
2023-02-22T03:20:14.259Z,95.70
2023-02-22T03:22:53.569Z,95.70
2023-02-22T03:25:43.334Z,95.70
2023-02-22T03:28:16.372Z,95.70
2023-02-22T03:30:53.261Z,95.70
2023-02-22T03:33:46.330Z,95.70
2023-02-22T03:36:28.536Z,95.80
2023-02-22T03:38:59.994Z,95.80
2023-02-22T03:41:28.885Z,95.70
2023-02-22T03:44:09.895Z,95.70
2023-02-22T03:46:41.575Z,95.70
2023-02-22T03:49:32.569Z,95.60
2023-02-22T03:52:01.218Z,95.70
2023-02-22T03:54:30.212Z,95.60
2023-02-22T03:57:08.565Z,95.60
2023-02-22T03:59:39.956Z,95.70
2023-02-22T04:02:07.165Z,95.70
2023-02-22T04:04:35.240Z,95.70
2023-02-22T04:07:04.201Z,95.70
2023-02-22T04:09:31.709Z,95.80
2023-02-22T04:11:59.132Z,95.80
2023-02-22T04:14:28.770Z,95.70
2023-02-22T04:16:58.398Z,95.70
2023-02-22T04:19:26.094Z,95.70
2023-02-22T04:21:53.751Z,95.60
2023-02-22T04:24:26.577Z,95.60
2023-02-22T04:26:55.469Z,95.60
2023-02-22T04:29:23.341Z,95.60
2023-02-22T04:31:51.058Z,95.60
2023-02-22T04:34:18.136Z,95.60
2023-02-22T04:36:45.419Z,95.50
2023-02-22T04:39:12.798Z,95.50
2023-02-22T04:41:39.816Z,95.60
2023-02-22T04:44:07.923Z,95.60
2023-02-22T04:46:36.468Z,95.60
2023-02-22T04:49:05.918Z,95.70
2023-02-22T04:51:37.743Z,95.60
2023-02-22T04:54:07.655Z,95.60
2023-02-22T04:56:37.419Z,95.70
2023-02-22T04:59:06.208Z,95.70
2023-02-22T05:01:36.057Z,95.70
2023-02-22T05:04:06.846Z,95.70
2023-02-22T05:06:34.227Z,95.70
2023-02-22T05:09:01.308Z,95.80
2023-02-22T05:11:29.371Z,95.80
2023-02-22T05:13:56.988Z,95.90
2023-02-22T05:16:24.572Z,95.90
2023-02-22T05:18:52.751Z,95.90
2023-02-22T05:21:20.348Z,95.80
2023-02-22T05:23:47.572Z,95.80
2023-02-22T05:26:16.267Z,95.80
2023-02-22T05:28:43.513Z,95.90
2023-02-22T05:31:10.834Z,95.90
2023-02-22T05:33:39.981Z,96.00
2023-02-22T05:36:07.902Z,96.00
2023-02-22T05:38:43.598Z,96.00
2023-02-22T05:41:13.250Z,96.00
2023-02-22T05:43:44.615Z,95.90
2023-02-22T05:46:13.923Z,95.90
2023-02-22T05:48:41.455Z,96.00
2023-02-22T05:51:09.754Z,96.00
2023-02-22T05:53:39.555Z,96.00
2023-02-22T05:56:08.129Z,96.00
2023-02-22T05:58:37.727Z,96.10
2023-02-22T06:01:05.018Z,96.10
2023-02-22T06:03:32.304Z,96.10
2023-02-22T06:05:59.582Z,96.10
2023-02-22T06:08:27.846Z,96.10
2023-02-22T06:10:55.707Z,96.10
2023-02-22T06:13:22.763Z,96.10
2023-02-22T06:15:50.389Z,96.00
2023-02-22T06:18:19.876Z,96.00
2023-02-22T06:20:47.009Z,96.10
2023-02-22T06:23:14.157Z,96.10
2023-02-22T06:25:44.591Z,96.10
2023-02-22T06:28:12.363Z,96.20
2023-02-22T06:30:43.873Z,96.20
2023-02-22T06:33:12.067Z,96.20
2023-02-22T06:35:39.882Z,96.10
2023-02-22T06:38:07.648Z,96.10
2023-02-22T06:40:35.028Z,96.10
2023-02-22T06:43:02.358Z,96.10
2023-02-22T06:45:30.184Z,96.10
2023-02-22T06:47:57.484Z,96.10
2023-02-22T06:50:30.292Z,96.40
2023-02-22T06:52:58.637Z,96.10
2023-02-22T06:55:31.807Z,96.10
2023-02-22T06:57:59.869Z,96.10
2023-02-22T07:00:28.851Z,96.10
2023-02-22T07:02:56.914Z,96.10
2023-02-22T07:05:25.989Z,96.10
2023-02-22T07:07:56.437Z,96.20
2023-02-22T07:10:30.539Z,96.10
2023-02-22T07:12:58.052Z,96.10
2023-02-22T07:15:27.954Z,96.10
2023-02-22T07:17:57.605Z,96.10
2023-02-22T07:20:27.677Z,96.10
2023-02-22T07:22:55.396Z,96.10
2023-02-22T07:25:24.040Z,96.00
2023-02-22T07:27:52.565Z,96.00
2023-02-22T07:30:29.061Z,96.00
2023-02-22T07:32:57.587Z,96.00
2023-02-22T07:35:28.617Z,96.00
2023-02-22T07:37:56.237Z,95.90
2023-02-22T07:40:24.798Z,95.90
2023-02-22T07:42:58.052Z,95.90
2023-02-22T07:45:33.392Z,95.90
2023-02-22T07:48:02.276Z,95.90
2023-02-22T07:50:31.880Z,95.90
2023-02-22T07:53:05.273Z,95.90
2023-02-22T07:55:33.657Z,95.80
2023-02-22T07:58:03.482Z,95.80
2023-02-22T08:00:32.842Z,95.80
2023-02-22T08:03:02.006Z,95.80
2023-02-22T08:05:30.259Z,95.80
2023-02-22T08:07:59.760Z,95.90
2023-02-22T08:10:27.377Z,95.90
2023-02-22T08:12:57.054Z,95.90
2023-02-22T08:15:42.181Z,95.90
2023-02-22T08:18:15.438Z,95.90
2023-02-22T08:20:44.439Z,95.90
2023-02-22T08:23:13.007Z,96.10
2023-02-22T08:25:40.863Z,95.80
2023-02-22T08:28:12.162Z,95.80
2023-02-22T08:30:42.966Z,95.70
2023-02-22T08:33:19.594Z,95.60
2023-02-22T08:35:52.015Z,95.70
2023-02-22T08:38:26.641Z,95.70
2023-02-22T08:40:54.464Z,95.70
2023-02-22T08:43:26.045Z,95.70
2023-02-22T08:45:57.192Z,95.70
2023-02-22T08:48:24.994Z,95.70
2023-02-22T08:50:55.244Z,95.60
2023-02-22T08:53:22.704Z,95.50
2023-02-22T08:55:49.916Z,95.40
2023-02-22T08:58:20.181Z,95.50
2023-02-22T09:00:47.521Z,95.50
2023-02-22T09:03:15.635Z,95.50
2023-02-22T09:05:44.654Z,95.50
2023-02-22T09:08:13.558Z,95.50
2023-02-22T09:10:41.710Z,95.40
2023-02-22T09:13:10.761Z,95.30
2023-02-22T09:15:39.951Z,95.10
2023-02-22T09:18:10.276Z,95.20
2023-02-22T09:20:37.553Z,95.20
2023-02-22T09:23:07.679Z,95.10
2023-02-22T09:25:35.954Z,95.10
2023-02-22T09:28:03.340Z,95.10
2023-02-22T09:30:32.719Z,95.00
2023-02-22T09:33:03.873Z,94.80
2023-02-22T09:35:36.407Z,94.60
2023-02-22T09:38:08.737Z,94.60
2023-02-22T09:40:45.382Z,94.70
2023-02-22T09:43:27.038Z,94.70
2023-02-22T09:46:19.891Z,94.50
2023-02-22T09:49:00.196Z,94.40
2023-02-22T09:51:40.338Z,94.30
2023-02-22T09:54:36.702Z,94.20
2023-02-22T09:57:19.407Z,94.10
2023-02-22T10:00:13.911Z,93.80
2023-02-22T10:02:49.841Z,93.80
2023-02-22T10:05:28.095Z,93.70
2023-02-22T10:08:11.532Z,93.70
2023-02-22T10:10:52.509Z,93.50
2023-02-22T10:13:56.723Z,93.00
2023-02-22T10:16:59.632Z,93.10
2023-02-22T10:19:38.662Z,93.20
2023-02-22T10:22:28.799Z,93.10
2023-02-22T10:25:02.880Z,93.10
2023-02-22T10:27:34.941Z,93.20
2023-02-22T10:30:23.495Z,93.20
2023-02-22T10:33:17.319Z,93.10
2023-02-22T10:35:47.052Z,92.70
2023-02-22T10:38:22.202Z,92.40
2023-02-22T10:41:08.962Z,92.10
2023-02-22T10:43:41.649Z,92.10
2023-02-22T10:46:15.296Z,92.10
2023-02-22T10:48:45.630Z,92.00
2023-02-22T10:51:13.840Z,92.00
2023-02-22T10:53:41.185Z,91.90
2023-02-22T10:56:19.605Z,91.80
2023-02-22T10:59:02.720Z,91.80
2023-02-22T11:01:33.173Z,91.80
2023-02-22T11:04:22.538Z,91.50
2023-02-22T11:07:17.010Z,91.00
2023-02-22T11:09:51.608Z,91.10
2023-02-22T11:12:23.487Z,91.00
2023-02-22T11:14:52.573Z,90.90
2023-02-22T11:17:34.114Z,90.90
2023-02-22T11:20:01.705Z,90.80
2023-02-22T11:22:40.790Z,90.60
2023-02-22T11:25:08.796Z,90.60
2023-02-22T11:27:47.221Z,90.60
2023-02-22T11:30:43.988Z,90.30
2023-02-22T11:33:25.068Z,89.90
2023-02-22T11:35:58.284Z,89.90
2023-02-22T11:38:31.234Z,90.00
2023-02-22T11:41:17.310Z,90.10
2023-02-22T11:43:51.778Z,90.10
2023-02-22T11:46:30.192Z,90.00
2023-02-22T11:49:01.628Z,89.50
2023-02-22T11:51:50.390Z,89.20
2023-02-22T11:54:32.301Z,88.70
2023-02-22T11:57:08.757Z,88.20
2023-02-22T12:00:07.448Z,88.30
2023-02-22T12:03:15.981Z,88.20
2023-02-22T12:05:59.561Z,87.60
2023-02-22T12:08:38.877Z,87.20
2023-02-22T12:11:24.004Z,86.80
2023-02-22T12:14:00.239Z,87.10
2023-02-22T12:16:46.986Z,87.20
2023-02-22T12:19:22.275Z,87.50
2023-02-22T12:22:02.330Z,87.40
2023-02-22T12:24:48.883Z,87.40
2023-02-22T12:27:30.439Z,86.50
2023-02-22T12:30:05.844Z,85.90
2023-02-22T12:32:49.611Z,86.20
2023-02-22T12:35:27.921Z,86.70
2023-02-22T12:38:04.932Z,87.10
2023-02-22T12:41:01.149Z,86.90
2023-02-22T12:43:34.558Z,86.70
2023-02-22T12:46:19.496Z,86.80
2023-02-22T12:48:54.753Z,87.00
2023-02-22T12:51:53.257Z,87.20
2023-02-22T12:54:58.101Z,87.30
2023-02-22T12:57:44.765Z,87.60
2023-02-22T13:00:43.227Z,87.60
2023-02-22T13:03:40.989Z,87.60
2023-02-22T13:06:44.268Z,87.50
2023-02-22T13:09:33.022Z,87.30
2023-02-22T13:12:15.649Z,87.20
2023-02-22T13:15:17.364Z,87.40
2023-02-22T13:18:36.484Z,87.50
2023-02-22T13:21:17.358Z,86.70
2023-02-22T13:24:03.848Z,86.50
2023-02-22T13:26:45.879Z,86.70
2023-02-22T13:29:19.974Z,86.40
2023-02-22T13:32:25.492Z,86.50
2023-02-22T13:35:05.194Z,86.20
2023-02-22T13:37:40.450Z,86.30
2023-02-22T13:40:22.675Z,86.30
2023-02-22T13:43:08.565Z,86.30
2023-02-22T13:45:42.228Z,86.90
2023-02-22T13:48:12.360Z,87.00
2023-02-22T13:51:25.045Z,87.20
2023-02-22T13:53:59.603Z,87.50
2023-02-22T13:56:31.299Z,87.70
2023-02-22T13:59:04.662Z,88.00
2023-02-22T14:01:47.886Z,87.80
2023-02-22T14:04:29.664Z,88.20
2023-02-22T14:07:26.035Z,88.20
2023-02-22T14:09:59.692Z,88.20
2023-02-22T14:12:30.081Z,88.40
2023-02-22T14:15:28.314Z,88.30
2023-02-22T14:18:02.179Z,88.20
2023-02-22T14:20:40.405Z,88.00
2023-02-22T14:23:31.503Z,88.00
2023-02-22T14:26:16.077Z,88.10
2023-02-22T14:28:54.821Z,88.10
2023-02-22T14:31:36.995Z,88.00
2023-02-22T14:34:07.811Z,87.70
2023-02-22T14:37:01.556Z,87.40
2023-02-22T14:39:51.457Z,87.40
2023-02-22T14:42:37.752Z,87.30
2023-02-22T14:45:24.900Z,87.20
2023-02-22T14:48:29.792Z,86.90
2023-02-22T14:51:15.636Z,86.70
2023-02-22T14:53:52.000Z,86.30
2023-02-22T14:56:25.086Z,86.20
2023-02-22T14:59:08.201Z,86.20
2023-02-22T15:01:55.271Z,86.20
2023-02-22T15:04:33.499Z,86.00
2023-02-22T15:07:21.628Z,85.80
2023-02-22T15:09:48.896Z,85.40
2023-02-22T15:12:29.986Z,85.30
2023-02-22T15:15:32.834Z,85.30
2023-02-22T15:17:59.977Z,85.10
2023-02-22T15:20:28.467Z,84.90
2023-02-22T15:23:00.469Z,84.50
2023-02-22T15:25:31.914Z,84.40
2023-02-22T15:28:05.378Z,84.20
2023-02-22T15:30:34.588Z,84.30
2023-02-22T15:33:26.461Z,84.40
2023-02-22T15:35:55.780Z,84.50
2023-02-22T15:38:29.804Z,84.50
2023-02-22T15:41:22.084Z,84.60
2023-02-22T15:44:23.806Z,84.90
2023-02-22T15:46:54.474Z,85.20
2023-02-22T15:49:23.711Z,85.30
2023-02-22T15:52:24.911Z,85.60
2023-02-22T15:54:53.575Z,85.60
2023-02-22T15:57:25.752Z,85.80
2023-02-22T15:59:57.198Z,86.00
2023-02-22T16:02:39.908Z,86.10
2023-02-22T16:05:14.252Z,86.20
2023-02-22T16:07:48.284Z,86.30
2023-02-22T16:10:30.345Z,86.30
2023-02-22T16:13:32.317Z,86.50
2023-02-22T16:16:24.958Z,86.60
2023-02-22T16:18:53.719Z,86.80
2023-02-22T16:21:24.118Z,86.80
2023-02-22T16:24:01.353Z,86.90
2023-02-22T16:26:35.056Z,87.10
2023-02-22T16:29:06.780Z,87.20
2023-02-22T16:31:39.553Z,87.40
2023-02-22T16:34:09.668Z,87.50
2023-02-22T16:36:50.341Z,87.70
2023-02-22T16:39:19.406Z,87.80
2023-02-22T16:41:47.091Z,87.80
2023-02-22T16:44:14.610Z,88.00
2023-02-22T16:46:45.865Z,88.50
2023-02-22T16:49:14.105Z,88.30
2023-02-22T16:51:56.467Z,88.40
2023-02-22T16:54:30.339Z,88.50
2023-02-22T16:57:00.673Z,88.70
2023-02-22T16:59:31.781Z,88.70
2023-02-22T17:01:59.202Z,88.90
2023-02-22T17:04:28.849Z,89.00
2023-02-22T17:06:58.985Z,89.20
2023-02-22T17:09:26.459Z,89.30
2023-02-22T17:11:55.538Z,89.40
2023-02-22T17:14:24.439Z,89.60
2023-02-22T17:16:52.657Z,89.70
2023-02-22T17:19:26.654Z,89.80
2023-02-22T17:21:55.652Z,90.10
2023-02-22T17:24:29.305Z,89.80
2023-02-22T17:26:58.852Z,89.80
2023-02-22T17:29:27.843Z,89.70
2023-02-22T17:31:55.296Z,90.00
2023-02-22T17:34:22.404Z,90.00
2023-02-22T17:36:50.316Z,90.10
2023-02-22T17:39:17.389Z,90.20
2023-02-22T17:41:44.980Z,90.20
2023-02-22T17:44:12.382Z,90.20
2023-02-22T17:46:42.218Z,90.20
2023-02-22T17:49:09.225Z,90.20
2023-02-22T17:51:41.001Z,90.30
2023-02-22T17:54:10.530Z,90.30
2023-02-22T17:56:38.260Z,90.30
2023-02-22T17:59:09.101Z,90.40
2023-02-22T18:01:38.880Z,90.40
2023-02-22T18:04:05.914Z,90.40
2023-02-22T18:06:35.445Z,90.40
2023-02-22T18:09:10.587Z,90.40
2023-02-22T18:11:40.098Z,90.40
2023-02-22T18:14:10.160Z,90.40
2023-02-22T18:16:42.504Z,90.50
2023-02-22T18:19:09.691Z,90.60
2023-02-22T18:21:36.814Z,90.70
2023-02-22T18:24:05.106Z,90.70
2023-02-22T18:26:32.194Z,90.80
2023-02-22T18:29:01.143Z,90.80
2023-02-22T18:31:28.193Z,90.80
2023-02-22T18:33:57.571Z,90.90
2023-02-22T18:36:26.534Z,91.20
2023-02-22T18:38:54.970Z,91.00
2023-02-22T18:41:26.694Z,90.90
2023-02-22T18:43:55.564Z,90.90
2023-02-22T18:46:24.609Z,90.90
2023-02-22T18:48:56.646Z,90.80
2023-02-22T18:51:24.859Z,90.90
2023-02-22T18:54:00.433Z,90.90
2023-02-22T18:56:30.120Z,91.00
2023-02-22T18:59:00.289Z,91.00
2023-02-22T19:01:28.144Z,91.10
2023-02-22T19:03:55.923Z,91.10
2023-02-22T19:06:23.548Z,91.10
2023-02-22T19:08:51.253Z,91.20
2023-02-22T19:11:22.316Z,91.30
2023-02-22T19:13:51.794Z,91.50
2023-02-22T19:16:21.590Z,91.50
2023-02-22T19:18:52.592Z,91.60
2023-02-22T19:21:20.899Z,91.50
2023-02-22T19:23:49.085Z,91.50
2023-02-22T19:26:24.177Z,91.40
2023-02-22T19:28:54.454Z,91.40
2023-02-22T19:31:29.822Z,91.40
2023-02-22T19:34:01.762Z,91.50
2023-02-22T19:36:28.829Z,91.50
2023-02-22T19:38:57.467Z,91.50
2023-02-22T19:41:24.598Z,91.50
2023-02-22T19:43:52.928Z,91.50
2023-02-22T19:46:21.604Z,91.60
2023-02-22T19:48:49.325Z,91.70
2023-02-22T19:51:18.795Z,91.70
2023-02-22T19:53:47.241Z,91.80
2023-02-22T19:56:20.017Z,91.90
2023-02-22T19:58:50.182Z,91.90
2023-02-22T20:01:23.233Z,92.00
2023-02-22T20:04:12.781Z,91.90
2023-02-22T20:06:42.682Z,92.00
2023-02-22T20:09:13.093Z,92.00
2023-02-22T20:11:40.962Z,92.00
2023-02-22T20:14:08.002Z,92.00
2023-02-22T20:16:35.828Z,92.00
2023-02-22T20:19:03.216Z,92.10
2023-02-22T20:21:33.559Z,92.10
2023-02-22T20:24:02.637Z,92.20
2023-02-22T20:26:32.060Z,92.20
2023-02-22T20:28:59.713Z,92.10
2023-02-22T20:31:29.690Z,92.10
2023-02-22T20:34:02.628Z,92.10
2023-02-22T20:36:30.492Z,92.10
2023-02-22T20:39:07.547Z,92.10
2023-02-22T20:41:36.189Z,92.10
2023-02-22T20:44:07.375Z,92.10
2023-02-22T20:46:38.124Z,92.10
2023-02-22T20:49:09.685Z,92.10
2023-02-22T20:51:43.501Z,92.10
2023-02-22T20:54:12.755Z,92.00
2023-02-22T20:56:42.573Z,92.10
2023-02-22T20:59:14.296Z,92.20
2023-02-22T21:01:43.503Z,92.20
2023-02-22T21:04:11.609Z,92.30
2023-02-22T21:06:40.238Z,92.40
2023-02-22T21:09:11.917Z,92.40
2023-02-22T21:11:40.124Z,92.50
2023-02-22T21:14:07.493Z,92.50
2023-02-22T21:16:36.867Z,92.60
2023-02-22T21:19:06.954Z,92.60
2023-02-22T21:21:36.442Z,92.60
2023-02-22T21:24:08.093Z,92.60
2023-02-22T21:26:36.951Z,92.60
2023-02-22T21:29:07.237Z,92.60
2023-02-22T21:31:38.001Z,92.60
2023-02-22T21:34:05.669Z,92.60
2023-02-22T21:36:35.915Z,92.60
2023-02-22T21:39:09.817Z,92.60
2023-02-22T21:41:40.468Z,92.70
2023-02-22T21:44:08.278Z,92.70
2023-02-22T21:46:35.380Z,92.80
2023-02-22T21:49:02.805Z,92.90
2023-02-22T21:51:32.140Z,92.90
2023-02-22T21:54:03.373Z,92.90
2023-02-22T21:56:34.459Z,93.00
2023-02-22T21:59:04.612Z,93.10
2023-02-22T22:01:38.665Z,93.10
2023-02-22T22:04:06.856Z,93.20
2023-02-22T22:06:34.940Z,93.20
2023-02-22T22:09:15.258Z,93.20
2023-02-22T22:11:42.619Z,93.30
2023-02-22T22:14:10.678Z,93.30
2023-02-22T22:16:37.755Z,93.30
2023-02-22T22:19:07.745Z,93.30
2023-02-22T22:21:35.038Z,93.30
2023-02-22T22:24:04.005Z,93.40
2023-02-22T22:26:31.052Z,93.50
2023-02-22T22:29:00.325Z,93.50
2023-02-22T22:31:28.891Z,93.50
2023-02-22T22:33:57.576Z,93.40
2023-02-22T22:36:27.101Z,93.40
2023-02-22T22:38:57.647Z,93.40
2023-02-22T22:41:28.213Z,93.50
2023-02-22T22:43:56.226Z,93.60
2023-02-22T22:46:23.416Z,93.60
2023-02-22T22:48:50.623Z,93.60
2023-02-22T22:51:20.922Z,93.60
2023-02-22T22:53:52.565Z,93.60
2023-02-22T22:56:27.502Z,93.60
2023-02-22T22:58:57.604Z,93.80
2023-02-22T23:01:34.566Z,93.90
2023-02-22T23:04:04.476Z,94.00
2023-02-22T23:06:40.992Z,94.10
2023-02-22T23:09:12.758Z,94.20
2023-02-22T23:11:47.669Z,94.30
2023-02-22T23:14:24.283Z,94.40
2023-02-22T23:16:53.541Z,94.50
2023-02-22T23:19:27.685Z,94.60
2023-02-22T23:21:56.020Z,94.70
2023-02-22T23:24:27.394Z,94.70
2023-02-22T23:27:00.384Z,94.80
2023-02-22T23:29:30.044Z,94.90
2023-02-22T23:31:58.713Z,95.00
2023-02-22T23:34:27.766Z,95.10
2023-02-22T23:36:55.031Z,95.20
2023-02-22T23:39:24.408Z,95.20
2023-02-22T23:41:55.233Z,95.30
2023-02-22T23:44:23.787Z,95.30
2023-02-22T23:46:55.720Z,95.40
2023-02-22T23:49:27.769Z,95.40
2023-02-22T23:51:55.003Z,95.40
2023-02-22T23:54:27.104Z,95.40
2023-02-22T23:56:57.103Z,95.40
2023-02-22T23:59:29.354Z,95.40
